Time;durP1;ratioP1;P1;durP2;ratioP2;P2;SDS_P1;SDS_P2;PMS_P1;PMS_P2;Temp;Humidity;BMP_temperature;BMP_pressure;BME280_temperature;BME280_humidity;BME280_pressure;Samples;Min_cycle;Max_cycle;Signal;HPM_P1;HPM_P2
2021/10/03 00:00:20;;;;;;;3.88;2.60;;;;;;;;;;5036796;28;20029;-89
2021/10/03 00:02:47;;;;;;;6.65;3.08;;;;;;;;;;5036510;28;20357;-90
2021/10/03 00:05:13;;;;;;;3.45;2.88;;;;;;;;;;5054753;28;20024;-89
2021/10/03 00:07:40;;;;;;;3.85;2.80;;;;;;;;;;5036579;28;20066;-89
2021/10/03 00:10:06;;;;;;;3.50;2.78;;;;;;;;;;5054127;28;20460;-89
2021/10/03 00:12:31;;;;;;;4.80;2.67;;;;;;;;;;5054283;28;20029;-89
2021/10/03 00:14:56;;;;;;;5.55;2.83;;;;;;;;;;5036699;28;20029;-89
2021/10/03 00:17:22;;;;;;;4.32;3.10;;;;;;;;;;5036045;28;20025;-89
2021/10/03 00:19:47;;;;;;;4.78;2.78;;;;;;;;;;5054189;28;20025;-89
2021/10/03 00:22:13;;;;;;;5.82;2.80;;;;;;;;;;5036392;28;20017;-89
2021/10/03 00:24:39;;;;;;;6.03;3.30;;;;;;;;;;5054306;28;20542;-89
2021/10/03 00:27:04;;;;;;;3.22;2.92;;;;;;;;;;5035907;28;20017;-89
2021/10/03 00:29:30;;;;;;;5.85;2.78;;;;;;;;;;5054616;28;20416;-89
2021/10/03 00:31:56;;;;;;;6.28;3.20;;;;;;;;;;5054628;28;20028;-90
2021/10/03 00:34:22;;;;;;;5.60;3.55;;;;;;;;;;5037230;28;20021;-91
2021/10/03 00:36:47;;;;;;;5.88;3.15;;;;;;;;;;5038040;28;20025;-90
2021/10/03 00:39:17;;;;;;;4.38;3.35;;;;;;;;;;5034714;28;20020;-90
2021/10/03 00:41:45;;;;;;;3.85;3.00;;;;;;;;;;5036931;28;20120;-90
2021/10/03 00:44:10;;;;;;;6.25;3.70;;;;;;;;;;5055102;28;20468;-90
2021/10/03 00:46:36;;;;;;;5.68;4.18;;;;;;;;;;5037153;28;20041;-90
2021/10/03 00:49:01;;;;;;;6.05;3.80;;;;;;;;;;5036791;28;20388;-90
2021/10/03 00:51:27;;;;;;;6.78;4.35;;;;;;;;;;5036196;28;20112;-90
2021/10/03 00:53:52;;;;;;;5.20;4.18;;;;;;;;;;5036386;28;20043;-90
2021/10/03 00:56:18;;;;;;;6.30;3.92;;;;;;;;;;5036569;28;20044;-90
2021/10/03 00:58:45;;;;;;;5.60;4.50;;;;;;;;;;5054052;28;20345;-89
2021/10/03 01:01:11;;;;;;;7.05;4.43;;;;;;;;;;5035787;28;20064;-89
2021/10/03 01:03:39;;;;;;;6.13;4.65;;;;;;;;;;5036072;28;20091;-88
2021/10/03 01:06:06;;;;;;;6.65;4.63;;;;;;;;;;5054819;28;20050;-89
2021/10/03 01:08:31;;;;;;;4.90;4.40;;;;;;;;;;5036246;28;20021;-89
2021/10/03 01:10:57;;;;;;;11.02;4.70;;;;;;;;;;5053678;28;20089;-89
2021/10/03 01:13:23;;;;;;;4.60;4.20;;;;;;;;;;5036093;28;20466;-89
2021/10/03 01:15:51;;;;;;;5.57;4.72;;;;;;;;;;5054757;28;20031;-89
2021/10/03 01:18:17;;;;;;;7.65;4.93;;;;;;;;;;5035498;28;20480;-89
2021/10/03 01:20:42;;;;;;;6.47;4.45;;;;;;;;;;5054059;28;20079;-89
2021/10/03 01:23:08;;;;;;;10.15;4.55;;;;;;;;;;5035703;28;20494;-89
2021/10/03 01:25:35;;;;;;;4.63;4.15;;;;;;;;;;5035872;28;20025;-90
2021/10/03 01:28:02;;;;;;;4.90;4.38;;;;;;;;;;5036862;28;20024;-90
2021/10/03 01:30:27;;;;;;;5.55;4.70;;;;;;;;;;5035244;28;20025;-89
2021/10/03 01:32:53;;;;;;;5.20;4.53;;;;;;;;;;5035348;28;20078;-89
2021/10/03 01:35:19;;;;;;;8.60;5.38;;;;;;;;;;5035061;28;20029;-89
2021/10/03 01:37:45;;;;;;;7.82;5.35;;;;;;;;;;5035215;28;20025;-89
2021/10/03 01:40:10;;;;;;;7.57;5.55;;;;;;;;;;5034769;28;20036;-89
2021/10/03 01:42:36;;;;;;;7.82;5.30;;;;;;;;;;5034678;28;20020;-89
2021/10/03 01:45:05;;;;;;;5.20;4.63;;;;;;;;;;5034780;28;20021;-89
2021/10/03 01:47:30;;;;;;;6.90;4.80;;;;;;;;;;5052783;28;20434;-89
2021/10/03 01:49:55;;;;;;;5.97;5.43;;;;;;;;;;5034583;28;20166;-89
2021/10/03 01:52:21;;;;;;;6.10;5.47;;;;;;;;;;5052945;28;20104;-89
2021/10/03 01:54:47;;;;;;;7.03;5.45;;;;;;;;;;5035984;28;20029;-90
2021/10/03 01:57:13;;;;;;;5.63;5.13;;;;;;;;;;5034807;28;20025;-90
2021/10/03 01:59:39;;;;;;;8.07;5.15;;;;;;;;;;5034870;28;20358;-89
2021/10/03 02:02:05;;;;;;;6.60;5.55;;;;;;;;;;5034991;28;20017;-89
2021/10/03 02:04:30;;;;;;;8.65;5.57;;;;;;;;;;5053615;28;20136;-89
2021/10/03 02:06:57;;;;;;;6.28;5.57;;;;;;;;;;5052153;28;20120;-89
2021/10/03 02:09:24;;;;;;;6.32;5.43;;;;;;;;;;5035852;28;20046;-89
2021/10/03 02:11:55;;;;;;;9.82;5.47;;;;;;;;;;5035190;28;20025;-89
2021/10/03 02:14:26;;;;;;;8.10;6.00;;;;;;;;;;5052943;28;20040;-89
2021/10/03 02:16:52;;;;;;;9.60;6.10;;;;;;;;;;5052330;28;20086;-89
2021/10/03 02:19:18;;;;;;;9.43;5.93;;;;;;;;;;5034678;28;20415;-90
2021/10/03 02:21:43;;;;;;;7.97;6.78;;;;;;;;;;5052111;28;20025;-90
2021/10/03 02:24:11;;;;;;;11.38;6.05;;;;;;;;;;5034150;28;20017;-89
2021/10/03 02:26:36;;;;;;;7.68;6.05;;;;;;;;;;5055511;28;20074;-89
2021/10/03 02:29:02;;;;;;;9.73;6.20;;;;;;;;;;5035030;28;20456;-90
2021/10/03 02:31:27;;;;;;;9.90;7.10;;;;;;;;;;5052424;28;20685;-89
2021/10/03 02:33:52;;;;;;;8.05;6.18;;;;;;;;;;5034594;28;20017;-89
2021/10/03 02:36:19;;;;;;;9.10;5.80;;;;;;;;;;5034394;28;20075;-89
2021/10/03 02:38:45;;;;;;;7.00;6.30;;;;;;;;;;5034357;28;20059;-89
2021/10/03 02:41:11;;;;;;;9.43;5.40;;;;;;;;;;5033545;28;20060;-89
2021/10/03 02:43:37;;;;;;;8.18;5.65;;;;;;;;;;5034654;28;20456;-89
2021/10/03 02:46:03;;;;;;;8.10;5.88;;;;;;;;;;5033603;28;20094;-89
2021/10/03 02:48:29;;;;;;;7.72;6.05;;;;;;;;;;5033860;28;20021;-89
2021/10/03 02:50:55;;;;;;;7.45;6.03;;;;;;;;;;5033811;28;20079;-89
2021/10/03 02:53:22;;;;;;;7.28;6.57;;;;;;;;;;5051240;28;20052;-89
2021/10/03 02:55:47;;;;;;;7.78;5.45;;;;;;;;;;5033263;28;20573;-89
2021/10/03 02:58:13;;;;;;;9.10;6.15;;;;;;;;;;5033313;28;20120;-89
2021/10/03 03:00:39;;;;;;;10.18;6.30;;;;;;;;;;5034459;28;20029;-89
2021/10/03 03:03:04;;;;;;;8.13;6.20;;;;;;;;;;5050806;28;20464;-89
2021/10/03 03:05:30;;;;;;;8.15;7.18;;;;;;;;;;5033477;28;20082;-89
2021/10/03 03:07:55;;;;;;;14.55;8.02;;;;;;;;;;5033312;28;20056;-89
2021/10/03 03:10:20;;;;;;;8.80;7.70;;;;;;;;;;5033859;28;20051;-89
2021/10/03 03:12:46;;;;;;;12.68;8.30;;;;;;;;;;5051163;28;20049;-89
2021/10/03 03:15:12;;;;;;;11.73;7.70;;;;;;;;;;5033725;28;20033;-89
2021/10/03 03:17:37;;;;;;;11.95;8.25;;;;;;;;;;5033264;28;20028;-89
2021/10/03 03:20:05;;;;;;;16.20;8.73;;;;;;;;;;5033602;28;20025;-89
2021/10/03 03:22:30;;;;;;;12.73;8.85;;;;;;;;;;5033802;28;20031;-89
2021/10/03 03:24:55;;;;;;;10.75;8.77;;;;;;;;;;5051511;28;20021;-89
2021/10/03 03:27:20;;;;;;;14.90;8.45;;;;;;;;;;5051552;28;20025;-89
2021/10/03 03:29:46;;;;;;;17.93;9.60;;;;;;;;;;5033109;28;20025;-89
2021/10/03 03:32:11;;;;;;;11.55;8.43;;;;;;;;;;5033418;28;20332;-89
2021/10/03 03:34:37;;;;;;;11.52;8.68;;;;;;;;;;5033263;28;20072;-89
2021/10/03 03:37:02;;;;;;;13.10;8.88;;;;;;;;;;5032987;28;20029;-89
2021/10/03 03:39:28;;;;;;;14.38;8.82;;;;;;;;;;5033586;28;20025;-89
2021/10/03 03:41:56;;;;;;;13.63;8.25;;;;;;;;;;5033074;28;20017;-89
2021/10/03 03:44:21;;;;;;;15.18;8.43;;;;;;;;;;5034304;28;20104;-89
2021/10/03 03:46:47;;;;;;;11.05;7.68;;;;;;;;;;5034441;28;20145;-90
2021/10/03 03:49:12;;;;;;;12.13;8.55;;;;;;;;;;5051908;28;20045;-89
2021/10/03 03:51:37;;;;;;;8.90;7.78;;;;;;;;;;5033906;28;20532;-89
2021/10/03 03:54:03;;;;;;;10.30;7.80;;;;;;;;;;5035077;28;20025;-89
2021/10/03 03:56:29;;;;;;;11.82;8.18;;;;;;;;;;5051970;28;20025;-89
2021/10/03 03:58:55;;;;;;;9.00;7.32;;;;;;;;;;5012603;28;20081;-89
2021/10/03 04:01:28;;;;;;;16.92;8.00;;;;;;;;;;5031178;28;20061;-89
2021/10/03 04:03:53;;;;;;;11.63;7.88;;;;;;;;;;5014533;28;20021;-89
2021/10/03 04:06:19;;;;;;;11.05;7.13;;;;;;;;;;5013665;28;20464;-89
2021/10/03 04:08:45;;;;;;;8.70;7.00;;;;;;;;;;5013171;28;20021;-89
2021/10/03 04:11:13;;;;;;;10.30;7.45;;;;;;;;;;5013308;28;20084;-89
2021/10/03 04:13:38;;;;;;;9.95;7.28;;;;;;;;;;5014935;28;20029;-89
2021/10/03 04:16:04;;;;;;;11.30;6.93;;;;;;;;;;5017276;28;20071;-89
2021/10/03 04:18:29;;;;;;;7.93;7.07;;;;;;;;;;5016478;28;20018;-89
2021/10/03 04:20:57;;;;;;;13.60;7.23;;;;;;;;;;5034670;28;20049;-89
2021/10/03 04:23:22;;;;;;;8.25;6.53;;;;;;;;;;5016735;28;20025;-89
2021/10/03 04:25:48;;;;;;;11.80;7.57;;;;;;;;;;5016838;28;20400;-89
2021/10/03 04:28:13;;;;;;;8.20;6.93;;;;;;;;;;5034298;28;20025;-89
2021/10/03 04:30:38;;;;;;;7.75;6.80;;;;;;;;;;5016315;28;20021;-89
2021/10/03 04:33:04;;;;;;;14.18;8.00;;;;;;;;;;5016143;28;20025;-89
2021/10/03 04:35:29;;;;;;;9.73;7.35;;;;;;;;;;5016634;28;20025;-89
2021/10/03 04:37:55;;;;;;;8.77;7.87;;;;;;;;;;5034113;28;20032;-89
2021/10/03 04:40:20;;;;;;;9.27;7.80;;;;;;;;;;5034064;28;20320;-89
2021/10/03 04:42:47;;;;;;;11.85;7.25;;;;;;;;;;5015637;28;20022;-89
2021/10/03 04:45:13;;;;;;;8.95;7.93;;;;;;;;;;5033602;28;20026;-89
2021/10/03 04:47:38;;;;;;;10.80;8.40;;;;;;;;;;5015579;28;20595;-89
2021/10/03 04:50:03;;;;;;;8.87;7.63;;;;;;;;;;5015891;28;20028;-89
2021/10/03 04:52:29;;;;;;;10.38;7.80;;;;;;;;;;5015800;28;20620;-89
2021/10/03 04:54:54;;;;;;;10.15;8.18;;;;;;;;;;5016247;28;20028;-89
2021/10/03 04:57:20;;;;;;;10.05;7.18;;;;;;;;;;5015903;28;20472;-89
2021/10/03 04:59:45;;;;;;;15.45;8.57;;;;;;;;;;5033404;28;20069;-89
2021/10/03 05:02:11;;;;;;;11.70;7.78;;;;;;;;;;5015793;28;20021;-89
2021/10/03 05:04:36;;;;;;;13.70;8.25;;;;;;;;;;5016548;28;20029;-89
2021/10/03 05:07:02;;;;;;;14.07;9.10;;;;;;;;;;5033688;28;20025;-89
2021/10/03 05:09:27;;;;;;;8.63;7.72;;;;;;;;;;5033718;28;20260;-89
2021/10/03 05:11:52;;;;;;;10.15;8.27;;;;;;;;;;5033768;28;20017;-89
2021/10/03 05:14:18;;;;;;;11.13;8.23;;;;;;;;;;5015718;28;20017;-89
2021/10/03 05:16:44;;;;;;;16.90;8.75;;;;;;;;;;5033174;28;20017;-89
2021/10/03 05:19:09;;;;;;;9.88;7.53;;;;;;;;;;5033277;28;20038;-89
2021/10/03 05:21:34;;;;;;;12.70;8.75;;;;;;;;;;5015181;28;20472;-89
2021/10/03 05:23:59;;;;;;;11.05;8.57;;;;;;;;;;5015273;28;20060;-89
2021/10/03 05:26:25;;;;;;;13.60;8.90;;;;;;;;;;5014480;28;20060;-88
2021/10/03 05:28:50;;;;;;;14.82;9.93;;;;;;;;;;5032759;28;20059;-89
2021/10/03 05:31:16;;;;;;;13.10;9.32;;;;;;;;;;5033111;28;20032;-88
2021/10/03 05:33:41;;;;;;;15.05;9.60;;;;;;;;;;5015422;28;20025;-89
2021/10/03 05:36:06;;;;;;;12.50;9.15;;;;;;;;;;5015169;28;20025;-88
2021/10/03 05:38:32;;;;;;;12.60;8.77;;;;;;;;;;5032733;28;20033;-89
2021/10/03 05:40:57;;;;;;;14.80;9.15;;;;;;;;;;5032576;28;20029;-88
2021/10/03 05:43:23;;;;;;;13.00;8.48;;;;;;;;;;5032761;28;20075;-88
2021/10/03 05:45:48;;;;;;;10.37;7.80;;;;;;;;;;5014382;28;20045;-88
2021/10/03 05:48:13;;;;;;;18.02;7.82;;;;;;;;;;5015067;28;20291;-88
2021/10/03 05:50:38;;;;;;;10.73;7.20;;;;;;;;;;5015360;28;20480;-88
2021/10/03 05:53:04;;;;;;;8.35;7.43;;;;;;;;;;5015145;28;20021;-89
2021/10/03 05:55:29;;;;;;;10.10;7.10;;;;;;;;;;5014969;28;20028;-88
2021/10/03 05:57:55;;;;;;;9.45;7.93;;;;;;;;;;5014924;28;20495;-88
2021/10/03 06:00:20;;;;;;;12.52;7.40;;;;;;;;;;5014660;28;20037;-88
2021/10/03 06:02:45;;;;;;;8.77;6.25;;;;;;;;;;5014983;28;20025;-88
2021/10/03 06:05:11;;;;;;;8.50;6.70;;;;;;;;;;5033064;28;20021;-89
2021/10/03 06:07:36;;;;;;;11.02;7.32;;;;;;;;;;5015221;28;20025;-89
2021/10/03 06:10:02;;;;;;;9.43;6.78;;;;;;;;;;5015382;28;20021;-89
2021/10/03 06:12:28;;;;;;;8.15;5.78;;;;;;;;;;5017578;28;20035;-89
2021/10/03 06:14:53;;;;;;;6.75;6.00;;;;;;;;;;5034410;28;20097;-89
2021/10/03 06:17:19;;;;;;;7.30;5.97;;;;;;;;;;5014346;28;20028;-89
2021/10/03 06:19:44;;;;;;;10.88;5.85;;;;;;;;;;5031362;28;20029;-89
2021/10/03 06:22:10;;;;;;;9.20;5.97;;;;;;;;;;5014466;28;20112;-89
2021/10/03 06:24:35;;;;;;;9.35;5.75;;;;;;;;;;5014730;28;20021;-89
2021/10/03 06:27:00;;;;;;;7.50;6.05;;;;;;;;;;5032285;28;20028;-89
2021/10/03 06:29:25;;;;;;;9.90;6.03;;;;;;;;;;5015091;28;20071;-89
2021/10/03 06:31:51;;;;;;;6.45;5.78;;;;;;;;;;5032807;28;20125;-89
2021/10/03 06:34:17;;;;;;;8.88;5.60;;;;;;;;;;5014091;28;20415;-89
2021/10/03 06:36:42;;;;;;;6.00;5.30;;;;;;;;;;5012759;28;20112;-90
2021/10/03 06:39:08;;;;;;;11.35;5.70;;;;;;;;;;5015630;28;20447;-89
2021/10/03 06:41:33;;;;;;;8.40;5.55;;;;;;;;;;5015540;28;20499;-89
2021/10/03 06:43:58;;;;;;;7.90;5.38;;;;;;;;;;5013808;28;20021;-89
2021/10/03 06:46:24;;;;;;;6.63;5.18;;;;;;;;;;5013141;28;20171;-89
2021/10/03 06:48:50;;;;;;;8.32;4.75;;;;;;;;;;5014213;28;20057;-89
2021/10/03 06:51:15;;;;;;;6.35;4.88;;;;;;;;;;5014199;28;20086;-89
2021/10/03 06:53:40;;;;;;;5.57;4.90;;;;;;;;;;5015792;28;20025;-89
2021/10/03 06:56:06;;;;;;;5.13;4.35;;;;;;;;;;5031219;28;20029;-89
2021/10/03 06:58:32;;;;;;;12.27;4.70;;;;;;;;;;5015791;28;20067;-90
2021/10/03 07:00:57;;;;;;;6.82;4.72;;;;;;;;;;5014991;28;20496;-90
2021/10/03 07:03:22;;;;;;;5.95;4.53;;;;;;;;;;5015446;28;20736;-89
2021/10/03 07:05:47;;;;;;;6.90;4.22;;;;;;;;;;5016108;28;20419;-89
2021/10/03 07:08:13;;;;;;;7.03;4.53;;;;;;;;;;5031039;28;20112;-90
2021/10/03 07:10:41;;;;;;;7.50;5.05;;;;;;;;;;5012990;28;20472;-89
2021/10/03 07:13:06;;;;;;;8.00;4.80;;;;;;;;;;5013382;28;20684;-89
2021/10/03 07:15:32;;;;;;;4.50;4.10;;;;;;;;;;5031223;28;20041;-89
2021/10/03 07:17:58;;;;;;;5.90;4.38;;;;;;;;;;5013715;28;20017;-89
2021/10/03 07:20:23;;;;;;;10.10;4.07;;;;;;;;;;5018299;28;20099;-89
2021/10/03 07:22:48;;;;;;;4.95;4.00;;;;;;;;;;5031327;28;20021;-89
2021/10/03 07:25:14;;;;;;;7.70;4.40;;;;;;;;;;5013677;28;20033;-89
2021/10/03 07:27:39;;;;;;;6.78;3.95;;;;;;;;;;5013359;28;20068;-89
2021/10/03 07:30:05;;;;;;;6.13;3.87;;;;;;;;;;5032221;28;20072;-90
2021/10/03 07:32:30;;;;;;;6.82;4.70;;;;;;;;;;5016248;28;20261;-90
2021/10/03 07:34:55;;;;;;;5.65;4.40;;;;;;;;;;5015092;28;20083;-90
2021/10/03 07:37:21;;;;;;;5.70;3.80;;;;;;;;;;5017195;28;20025;-90
2021/10/03 07:39:46;;;;;;;5.03;4.03;;;;;;;;;;5031691;28;20293;-90
2021/10/03 07:42:11;;;;;;;5.50;4.90;;;;;;;;;;5033552;28;20032;-90
2021/10/03 07:44:37;;;;;;;5.47;3.83;;;;;;;;;;5016454;28;20095;-90
2021/10/03 07:47:03;;;;;;;7.43;4.00;;;;;;;;;;5015917;28;20838;-90
2021/10/03 07:49:31;;;;;;;4.53;4.13;;;;;;;;;;5034706;28;20036;-90
2021/10/03 07:52:00;;;;;;;;;;;;;;;;;;5079017;23;20061;-90
2021/10/03 07:54:25;;;;;;;9.38;4.30;;;;;;;;;;5056202;28;19934;-89
2021/10/03 07:56:51;;;;;;;6.00;4.05;;;;;;;;;;5055072;28;20031;-90
2021/10/03 07:59:16;;;;;;;5.25;3.70;;;;;;;;;;5037462;28;20033;-89
2021/10/03 08:01:42;;;;;;;7.57;4.32;;;;;;;;;;5036366;28;20032;-89
2021/10/03 08:04:07;;;;;;;5.32;4.05;;;;;;;;;;5037438;28;20021;-89
2021/10/03 08:06:32;;;;;;;6.22;3.88;;;;;;;;;;5036194;28;20028;-89
2021/10/03 08:08:58;;;;;;;4.22;3.58;;;;;;;;;;5054252;28;20025;-90
2021/10/03 08:11:24;;;;;;;6.78;3.95;;;;;;;;;;5035952;28;20060;-89
2021/10/03 08:13:50;;;;;;;4.22;3.60;;;;;;;;;;5053857;28;20071;-89
2021/10/03 08:16:22;;;;;;;11.65;4.15;;;;;;;;;;5037094;28;20092;-90
2021/10/03 08:18:50;;;;;;;6.90;4.05;;;;;;;;;;5043424;23;20054;-90
2021/10/03 08:21:17;;;;;;;7.75;3.97;;;;;;;;;;5028347;23;20021;-91
2021/10/03 08:23:47;;;;;;;5.40;3.92;;;;;;;;;;1935147;22;21982;-88
2021/10/03 08:26:12;;;;;;;6.63;4.00;;;;;;;;;;5053657;28;20055;-89
2021/10/03 08:28:38;;;;;;;4.65;4.25;;;;;;;;;;5032381;28;20025;-88
2021/10/03 08:31:03;;;;;;;6.13;4.10;;;;;;;;;;5032252;28;20091;-88
2021/10/03 08:33:28;;;;;;;5.17;4.00;;;;;;;;;;5032588;28;20294;-88
2021/10/03 08:35:53;;;;;;;4.45;4.05;;;;;;;;;;5032155;28;20267;-89
2021/10/03 08:38:19;;;;;;;6.60;4.10;;;;;;;;;;5032261;28;20118;-89
2021/10/03 08:40:44;;;;;;;6.05;4.20;;;;;;;;;;5032145;28;20025;-88
2021/10/03 08:43:10;;;;;;;7.53;4.25;;;;;;;;;;5034128;28;20050;-89
2021/10/03 08:45:43;;;;;;;5.15;3.92;;;;;;;;;;5032246;28;20080;-88
2021/10/03 08:48:12;;;;;;;4.00;3.60;;;;;;;;;;5033536;28;20045;-88
2021/10/03 08:50:37;;;;;;;4.13;3.72;;;;;;;;;;5033401;28;20030;-88
2021/10/03 08:53:03;;;;;;;5.00;3.65;;;;;;;;;;5032034;28;20075;-88
2021/10/03 08:55:28;;;;;;;4.32;3.92;;;;;;;;;;5032106;28;20026;-88
2021/10/03 08:57:53;;;;;;;5.18;4.20;;;;;;;;;;5031656;28;20057;-89
2021/10/03 09:00:20;;;;;;;4.70;4.20;;;;;;;;;;5032480;28;20796;-88
2021/10/03 09:02:53;;;;;;;4.90;4.40;;;;;;;;;;5031771;28;20613;-88
2021/10/03 09:05:19;;;;;;;6.88;3.92;;;;;;;;;;5031799;28;20028;-89
2021/10/03 09:07:57;;;;;;;5.38;3.95;;;;;;;;;;5031707;28;20428;-89
2021/10/03 09:10:22;;;;;;;5.05;3.92;;;;;;;;;;5031886;28;20025;-89
2021/10/03 09:12:47;;;;;;;6.43;3.70;;;;;;;;;;5032959;28;20393;-88
2021/10/03 09:15:17;;;;;;;5.20;4.22;;;;;;;;;;5033360;28;20029;-88
2021/10/03 09:17:48;;;;;;;5.82;4.10;;;;;;;;;;5031576;28;20120;-88
2021/10/03 09:20:15;;;;;;;4.95;4.13;;;;;;;;;;5032852;28;20029;-88
2021/10/03 09:23:19;;;;;;;5.13;4.63;;;;;;;;;;5032706;28;20091;-87
2021/10/03 09:25:46;;;;;;;5.60;4.55;;;;;;;;;;5000682;28;20464;-88
2021/10/03 09:28:14;;;;;;;7.78;4.88;;;;;;;;;;5032854;28;20385;-88
2021/10/03 09:30:52;;;;;;;6.72;4.15;;;;;;;;;;5031061;28;20025;-88
2021/10/03 09:33:18;;;;;;;7.25;4.70;;;;;;;;;;5034508;28;20026;-88
2021/10/03 09:35:53;;;;;;;8.27;3.92;;;;;;;;;;5030972;28;20120;-88
2021/10/03 09:38:19;;;;;;;6.00;4.95;;;;;;;;;;5031045;28;20029;-87
2021/10/03 09:40:44;;;;;;;6.07;4.70;;;;;;;;;;5032313;28;20521;-88
2021/10/03 09:43:12;;;;;;;7.30;5.13;;;;;;;;;;5030700;28;20256;-88
2021/10/03 09:45:37;;;;;;;7.55;4.93;;;;;;;;;;5031002;28;20021;-88
2021/10/03 09:48:04;;;;;;;5.65;5.03;;;;;;;;;;5030815;28;20032;-88
2021/10/03 09:50:30;;;;;;;7.80;5.50;;;;;;;;;;5033906;28;20037;-88
2021/10/03 09:52:55;;;;;;;10.40;5.35;;;;;;;;;;5033342;28;20025;-89
2021/10/03 09:55:25;;;;;;;7.43;6.30;;;;;;;;;;5031148;28;20030;-89
2021/10/03 09:57:51;;;;;;;10.85;4.95;;;;;;;;;;5030925;28;20120;-89
2021/10/03 10:00:16;;;;;;;6.63;5.80;;;;;;;;;;5027871;28;20549;-89
2021/10/03 10:02:43;;;;;;;7.82;6.15;;;;;;;;;;5020612;28;20109;-89
2021/10/03 10:05:08;;;;;;;6.90;5.88;;;;;;;;;;5011039;28;20113;-89
2021/10/03 10:07:35;;;;;;;13.35;5.85;;;;;;;;;;5028394;28;20104;-89
2021/10/03 10:10:00;;;;;;;6.93;6.05;;;;;;;;;;5025218;28;20057;-89
2021/10/03 10:12:26;;;;;;;10.85;6.00;;;;;;;;;;5020269;28;20503;-89
2021/10/03 10:15:01;;;;;;;11.05;6.13;;;;;;;;;;5030218;28;20037;-89
2021/10/03 10:17:30;;;;;;;11.50;6.07;;;;;;;;;;5014236;28;20029;-89
2021/10/03 10:19:56;;;;;;;10.13;5.93;;;;;;;;;;5031363;28;20129;-89
2021/10/03 10:22:25;;;;;;;6.97;5.65;;;;;;;;;;5011929;28;20033;-89
2021/10/03 10:24:50;;;;;;;6.90;5.95;;;;;;;;;;4994244;28;20498;-89
2021/10/03 10:27:19;;;;;;;6.80;5.68;;;;;;;;;;5027371;28;20045;-89
2021/10/03 10:29:48;;;;;;;7.05;5.55;;;;;;;;;;5011106;28;20025;-89
2021/10/03 10:32:13;;;;;;;8.68;6.03;;;;;;;;;;5018603;28;20025;-89
2021/10/03 10:34:57;;;;;;;6.80;5.82;;;;;;;;;;5019747;28;20032;-89
2021/10/03 10:37:22;;;;;;;7.18;6.40;;;;;;;;;;5023025;28;20029;-89
2021/10/03 10:39:47;;;;;;;7.33;5.73;;;;;;;;;;5009651;28;20026;-89
2021/10/03 10:42:24;;;;;;;9.83;6.30;;;;;;;;;;5003837;28;20248;-89
2021/10/03 10:44:49;;;;;;;7.30;6.60;;;;;;;;;;5018918;28;20489;-89
2021/10/03 10:47:19;;;;;;;10.33;6.63;;;;;;;;;;5026418;28;20105;-89
2021/10/03 10:49:47;;;;;;;8.98;6.68;;;;;;;;;;5026802;28;20260;-89
2021/10/03 10:52:20;;;;;;;8.18;7.00;;;;;;;;;;5003696;28;20025;-89
2021/10/03 10:55:04;;;;;;;6.75;6.05;;;;;;;;;;5019902;28;20021;-89
2021/10/03 10:57:53;;;;;;;8.68;6.53;;;;;;;;;;5024784;28;20025;-91
2021/10/03 11:00:20;;;;;;;8.23;7.07;;;;;;;;;;5023007;28;20124;-89
2021/10/03 11:02:59;;;;;;;8.13;6.60;;;;;;;;;;5012173;28;20112;-89
2021/10/03 11:05:37;;;;;;;8.90;6.82;;;;;;;;;;5019340;28;20029;-89
2021/10/03 11:08:06;;;;;;;7.70;6.72;;;;;;;;;;5044013;28;20049;-89
2021/10/03 11:10:51;;;;;;;8.70;7.32;;;;;;;;;;5033418;28;20443;-89
2021/10/03 11:13:35;;;;;;;8.88;7.00;;;;;;;;;;5013962;28;20117;-88
2021/10/03 11:16:20;;;;;;;8.38;7.53;;;;;;;;;;4998216;28;20022;-89
2021/10/03 11:18:49;;;;;;;9.27;7.13;;;;;;;;;;5018170;28;20024;-89
2021/10/03 11:21:19;;;;;;;8.90;6.85;;;;;;;;;;4993346;28;20657;-89
2021/10/03 11:23:44;;;;;;;8.15;7.20;;;;;;;;;;4998346;28;20018;-89
2021/10/03 11:26:10;;;;;;;8.60;6.70;;;;;;;;;;5022803;28;20096;-89
2021/10/03 11:28:54;;;;;;;14.23;7.68;;;;;;;;;;5025535;28;20032;-89
2021/10/03 11:31:37;;;;;;;8.50;7.50;;;;;;;;;;5029559;28;20492;-89
2021/10/03 11:34:05;;;;;;;12.02;6.93;;;;;;;;;;5016015;28;20040;-89
2021/10/03 11:36:31;;;;;;;10.30;6.65;;;;;;;;;;5019417;28;20109;-89
2021/10/03 11:38:57;;;;;;;7.10;6.40;;;;;;;;;;5022869;28;20112;-89
2021/10/03 11:41:22;;;;;;;8.88;7.97;;;;;;;;;;5012810;28;20038;-88
2021/10/03 11:43:48;;;;;;;11.65;7.18;;;;;;;;;;5025619;28;20045;-89
2021/10/03 11:46:13;;;;;;;7.43;6.68;;;;;;;;;;5003499;28;20022;-89
2021/10/03 11:48:38;;;;;;;7.78;6.25;;;;;;;;;;5018617;28;20030;-88
2021/10/03 11:51:03;;;;;;;7.15;6.22;;;;;;;;;;5024138;28;20101;-89
2021/10/03 11:53:32;;;;;;;9.07;6.80;;;;;;;;;;5028859;28;20481;-89
2021/10/03 11:56:13;;;;;;;7.65;6.95;;;;;;;;;;5024384;28;20269;-89
2021/10/03 11:58:40;;;;;;;11.30;6.25;;;;;;;;;;5010462;28;20025;-89
2021/10/03 12:01:06;;;;;;;7.72;6.93;;;;;;;;;;5028644;28;20041;-89
2021/10/03 12:03:33;;;;;;;7.60;6.72;;;;;;;;;;5029524;28;20022;-88
2021/10/03 12:11:14;;;;;;;;;;;;;;;;;;4945145;23;20079;-88
2021/10/03 12:13:39;;;;;;;7.80;7.00;;;;;;;;;;5012324;28;20289;-88
2021/10/03 12:16:16;;;;;;;7.90;7.18;;;;;;;;;;5016240;28;20030;-88
2021/10/03 12:18:43;;;;;;;9.90;6.45;;;;;;;;;;5012313;28;20108;-88
2021/10/03 12:21:12;;;;;;;8.77;5.90;;;;;;;;;;5000905;28;20307;-88
2021/10/03 12:23:38;;;;;;;7.30;5.80;;;;;;;;;;5010383;28;20021;-89
2021/10/03 12:26:11;;;;;;;9.48;7.07;;;;;;;;;;4998203;28;20026;-88
2021/10/03 12:28:50;;;;;;;10.48;6.72;;;;;;;;;;5020091;28;20104;-88
2021/10/03 12:31:35;;;;;;;9.00;6.20;;;;;;;;;;5025688;28;20082;-88
2021/10/03 12:34:01;;;;;;;8.85;6.57;;;;;;;;;;5009063;28;20046;-88
2021/10/03 12:36:26;;;;;;;14.88;6.95;;;;;;;;;;5021685;28;20037;-88
2021/10/03 12:38:52;;;;;;;10.93;7.00;;;;;;;;;;5003879;28;20021;-88
2021/10/03 12:41:17;;;;;;;8.35;6.88;;;;;;;;;;5028985;28;20283;-88
2021/10/03 12:43:50;;;;;;;9.60;7.30;;;;;;;;;;5030711;28;20109;-88
2021/10/03 12:46:15;;;;;;;8.68;7.50;;;;;;;;;;4995933;28;20029;-88
2021/10/03 12:48:40;;;;;;;7.63;6.80;;;;;;;;;;5006300;28;20033;-88
2021/10/03 12:51:05;;;;;;;7.60;6.90;;;;;;;;;;5019029;28;20476;-88
2021/10/03 12:53:31;;;;;;;9.48;7.07;;;;;;;;;;5016163;28;20382;-88
2021/10/03 12:55:56;;;;;;;8.97;6.67;;;;;;;;;;5010914;28;20548;-88
2021/10/03 13:08:41;;;;;;;8.07;6.60;;;;;;;;;;3550844;22;20024;-89
2021/10/03 13:11:06;;;;;;;12.83;7.90;;;;;;;;;;5031903;28;20079;-89
2021/10/03 13:13:35;;;;;;;8.15;6.60;;;;;;;;;;4998554;28;20624;-89
2021/10/03 13:16:02;;;;;;;8.75;7.35;;;;;;;;;;4995855;28;20033;-90
2021/10/03 13:18:33;;;;;;;8.52;7.22;;;;;;;;;;4994215;28;20084;-91
2021/10/03 13:20:58;;;;;;;10.70;7.10;;;;;;;;;;5006986;28;20120;-89
2021/10/03 13:23:24;;;;;;;8.40;7.00;;;;;;;;;;5014461;28;20121;-89
2021/10/03 13:25:49;;;;;;;7.82;7.03;;;;;;;;;;5014529;28;20053;-89
2021/10/03 13:28:15;;;;;;;10.50;7.13;;;;;;;;;;5032267;28;20068;-89
2021/10/03 13:30:41;;;;;;;9.38;7.22;;;;;;;;;;5014556;28;20520;-89
2021/10/03 13:33:13;;;;;;;7.95;7.05;;;;;;;;;;5031806;28;20535;-90
2021/10/03 13:35:41;;;;;;;12.25;8.02;;;;;;;;;;5032408;28;20029;-89
2021/10/03 13:38:08;;;;;;;9.27;6.75;;;;;;;;;;5014402;28;20025;-89
2021/10/03 13:40:34;;;;;;;8.30;7.32;;;;;;;;;;5014338;28;20060;-90
2021/10/03 13:42:59;;;;;;;8.18;7.38;;;;;;;;;;5014181;28;20485;-90
2021/10/03 13:45:25;;;;;;;9.18;8.32;;;;;;;;;;5032064;28;20401;-89
2021/10/03 13:47:50;;;;;;;9.70;7.43;;;;;;;;;;5014261;28;20021;-89
2021/10/03 13:50:15;;;;;;;9.27;7.53;;;;;;;;;;5014025;28;20029;-89
2021/10/03 13:52:41;;;;;;;9.38;7.25;;;;;;;;;;5014315;28;20037;-90
2021/10/03 13:55:07;;;;;;;7.72;6.82;;;;;;;;;;5013904;28;20032;-89
2021/10/03 13:57:32;;;;;;;8.45;7.53;;;;;;;;;;5013845;28;20025;-89
2021/10/03 13:59:58;;;;;;;11.63;7.93;;;;;;;;;;5013923;28;20114;-89
2021/10/03 14:02:23;;;;;;;7.90;7.20;;;;;;;;;;5031926;28;20021;-89
2021/10/03 14:04:48;;;;;;;8.45;7.43;;;;;;;;;;5013813;28;20033;-89
2021/10/03 14:07:13;;;;;;;10.00;7.10;;;;;;;;;;5014050;28;20614;-88
2021/10/03 14:09:42;;;;;;;8.80;7.20;;;;;;;;;;5013614;28;20125;-89
2021/10/03 14:12:08;;;;;;;7.38;6.57;;;;;;;;;;5013500;28;20272;-89
2021/10/03 14:14:34;;;;;;;7.18;6.55;;;;;;;;;;5031489;28;20025;-89
2021/10/03 14:16:59;;;;;;;10.82;6.00;;;;;;;;;;5013738;28;20533;-89
2021/10/03 14:19:24;;;;;;;8.53;6.47;;;;;;;;;;5031601;28;20034;-89
2021/10/03 14:21:50;;;;;;;6.87;6.27;;;;;;;;;;5013372;28;20707;-89
2021/10/03 14:24:17;;;;;;;8.23;6.25;;;;;;;;;;5031675;28;20594;-89
2021/10/03 14:26:43;;;;;;;10.45;6.80;;;;;;;;;;5013286;28;20018;-89
2021/10/03 14:29:08;;;;;;;6.60;5.85;;;;;;;;;;5022931;23;20130;-90
2021/10/03 14:31:34;;;;;;;7.60;5.70;;;;;;;;;;5013550;28;20140;-90
2021/10/03 14:34:00;;;;;;;6.03;5.35;;;;;;;;;;5013544;28;20037;-90
2021/10/03 14:36:27;;;;;;;6.95;5.28;;;;;;;;;;5013280;28;20017;-91
2021/10/03 14:38:55;;;;;;;6.38;5.55;;;;;;;;;;5013185;28;20022;-90
2021/10/03 14:41:25;;;;;;;7.97;6.03;;;;;;;;;;5038235;22;20081;-90
2021/10/03 14:43:50;;;;;;;7.55;6.13;;;;;;;;;;5013347;28;20025;-90
2021/10/03 14:46:15;;;;;;;8.50;5.82;;;;;;;;;;5013666;28;20026;-90
2021/10/03 14:48:40;;;;;;;7.55;5.68;;;;;;;;;;5012527;28;20103;-91
2021/10/03 14:51:07;;;;;;;6.30;5.70;;;;;;;;;;5013121;28;20424;-87
2021/10/03 14:53:32;;;;;;;9.50;6.13;;;;;;;;;;5030516;28;20022;-89